sensor_id;sensor_type;location;lat;lon;timestamp;P1;durP1;ratioP1;P2;durP2;ratioP2
49464;SDS011;35358;49.342;8.802;2023-02-12T00:00:00;32.75;;;20.73;;
49464;SDS011;35358;49.342;8.802;2023-02-12T00:02:26;31.42;;;19.52;;
49464;SDS011;35358;49.342;8.802;2023-02-12T00:04:52;30.98;;;19.75;;
49464;SDS011;35358;49.342;8.802;2023-02-12T00:07:20;32.20;;;19.15;;
49464;SDS011;35358;49.342;8.802;2023-02-12T00:09:48;31.17;;;19.58;;
49464;SDS011;35358;49.342;8.802;2023-02-12T00:12:13;31.65;;;20.75;;
49464;SDS011;35358;49.342;8.802;2023-02-12T00:14:44;39.03;;;23.85;;
49464;SDS011;35358;49.342;8.802;2023-02-12T00:17:10;36.55;;;24.17;;
49464;SDS011;35358;49.342;8.802;2023-02-12T00:19:35;36.03;;;23.08;;
49464;SDS011;35358;49.342;8.802;2023-02-12T00:22:01;38.75;;;23.92;;
49464;SDS011;35358;49.342;8.802;2023-02-12T00:24:26;35.97;;;23.00;;
49464;SDS011;35358;49.342;8.802;2023-02-12T00:26:52;32.03;;;22.25;;
49464;SDS011;35358;49.342;8.802;2023-02-12T00:29:18;32.78;;;22.70;;
49464;SDS011;35358;49.342;8.802;2023-02-12T00:31:43;35.33;;;22.80;;
49464;SDS011;35358;49.342;8.802;2023-02-12T00:34:09;37.45;;;22.98;;
49464;SDS011;35358;49.342;8.802;2023-02-12T00:36:37;33.13;;;21.52;;
49464;SDS011;35358;49.342;8.802;2023-02-12T00:39:05;28.85;;;19.77;;
49464;SDS011;35358;49.342;8.802;2023-02-12T00:41:30;27.60;;;18.95;;
49464;SDS011;35358;49.342;8.802;2023-02-12T00:43:56;28.75;;;18.35;;
49464;SDS011;35358;49.342;8.802;2023-02-12T00:46:22;31.90;;;20.70;;
49464;SDS011;35358;49.342;8.802;2023-02-12T00:48:48;30.60;;;19.00;;
49464;SDS011;35358;49.342;8.802;2023-02-12T00:51:15;27.75;;;18.35;;
49464;SDS011;35358;49.342;8.802;2023-02-12T00:53:41;25.65;;;18.35;;
49464;SDS011;35358;49.342;8.802;2023-02-12T00:56:07;28.15;;;17.73;;
49464;SDS011;35358;49.342;8.802;2023-02-12T00:58:32;26.92;;;17.95;;
49464;SDS011;35358;49.342;8.802;2023-02-12T01:01:01;30.52;;;19.50;;
49464;SDS011;35358;49.342;8.802;2023-02-12T01:03:26;31.80;;;19.08;;
49464;SDS011;35358;49.342;8.802;2023-02-12T01:05:52;30.13;;;17.90;;
49464;SDS011;35358;49.342;8.802;2023-02-12T01:08:22;27.95;;;18.60;;
49464;SDS011;35358;49.342;8.802;2023-02-12T01:10:59;29.75;;;18.90;;
49464;SDS011;35358;49.342;8.802;2023-02-12T01:13:29;30.90;;;19.17;;
49464;SDS011;35358;49.342;8.802;2023-02-12T01:16:03;27.25;;;18.58;;
49464;SDS011;35358;49.342;8.802;2023-02-12T01:18:39;28.63;;;18.48;;
49464;SDS011;35358;49.342;8.802;2023-02-12T01:21:13;30.58;;;19.85;;
49464;SDS011;35358;49.342;8.802;2023-02-12T01:23:46;27.88;;;18.67;;
49464;SDS011;35358;49.342;8.802;2023-02-12T01:26:15;29.48;;;19.05;;
49464;SDS011;35358;49.342;8.802;2023-02-12T01:28:43;30.88;;;19.15;;
49464;SDS011;35358;49.342;8.802;2023-02-12T01:31:14;29.85;;;18.40;;
49464;SDS011;35358;49.342;8.802;2023-02-12T01:33:41;29.47;;;18.63;;
49464;SDS011;35358;49.342;8.802;2023-02-12T01:36:08;28.35;;;18.40;;
49464;SDS011;35358;49.342;8.802;2023-02-12T01:38:34;30.92;;;20.25;;
49464;SDS011;35358;49.342;8.802;2023-02-12T01:41:01;29.92;;;18.17;;
49464;SDS011;35358;49.342;8.802;2023-02-12T01:43:38;33.63;;;20.00;;
49464;SDS011;35358;49.342;8.802;2023-02-12T01:46:10;30.13;;;19.58;;
49464;SDS011;35358;49.342;8.802;2023-02-12T01:48:46;31.45;;;18.88;;
49464;SDS011;35358;49.342;8.802;2023-02-12T01:51:13;30.75;;;19.88;;
49464;SDS011;35358;49.342;8.802;2023-02-12T01:53:46;27.77;;;17.90;;
49464;SDS011;35358;49.342;8.802;2023-02-12T01:56:16;35.30;;;19.40;;
49464;SDS011;35358;49.342;8.802;2023-02-12T01:58:44;27.40;;;19.08;;
49464;SDS011;35358;49.342;8.802;2023-02-12T02:01:14;27.63;;;16.83;;
49464;SDS011;35358;49.342;8.802;2023-02-12T02:03:44;26.70;;;17.92;;
49464;SDS011;35358;49.342;8.802;2023-02-12T02:06:17;28.00;;;17.92;;
49464;SDS011;35358;49.342;8.802;2023-02-12T02:08:52;29.00;;;17.95;;
49464;SDS011;35358;49.342;8.802;2023-02-12T02:11:19;25.02;;;16.75;;
49464;SDS011;35358;49.342;8.802;2023-02-12T02:14:03;31.80;;;17.70;;
49464;SDS011;35358;49.342;8.802;2023-02-12T02:16:52;25.38;;;17.77;;
49464;SDS011;35358;49.342;8.802;2023-02-12T02:28:02;26.40;;;18.20;;
49464;SDS011;35358;49.342;8.802;2023-02-12T02:30:48;28.35;;;17.52;;
49464;SDS011;35358;49.342;8.802;2023-02-12T02:33:38;31.98;;;19.05;;
49464;SDS011;35358;49.342;8.802;2023-02-12T02:38:59;30.35;;;18.63;;
49464;SDS011;35358;49.342;8.802;2023-02-12T02:41:38;30.92;;;18.85;;
49464;SDS011;35358;49.342;8.802;2023-02-12T02:44:37;28.30;;;17.33;;
49464;SDS011;35358;49.342;8.802;2023-02-12T02:47:11;27.35;;;17.58;;
49464;SDS011;35358;49.342;8.802;2023-02-12T02:49:46;27.00;;;17.90;;
49464;SDS011;35358;49.342;8.802;2023-02-12T02:52:19;28.47;;;18.33;;
49464;SDS011;35358;49.342;8.802;2023-02-12T02:54:53;29.33;;;17.13;;
49464;SDS011;35358;49.342;8.802;2023-02-12T02:57:30;26.73;;;17.02;;
49464;SDS011;35358;49.342;8.802;2023-02-12T03:00:25;22.48;;;15.65;;
49464;SDS011;35358;49.342;8.802;2023-02-12T03:03:31;30.58;;;17.05;;
49464;SDS011;35358;49.342;8.802;2023-02-12T03:06:05;32.33;;;18.08;;
49464;SDS011;35358;49.342;8.802;2023-02-12T03:08:36;29.33;;;18.33;;
49464;SDS011;35358;49.342;8.802;2023-02-12T03:11:14;28.15;;;18.35;;
49464;SDS011;35358;49.342;8.802;2023-02-12T03:14:02;25.90;;;16.90;;
49464;SDS011;35358;49.342;8.802;2023-02-12T03:16:43;24.67;;;16.77;;
49464;SDS011;35358;49.342;8.802;2023-02-12T03:19:21;28.77;;;17.30;;
49464;SDS011;35358;49.342;8.802;2023-02-12T03:27:07;28.20;;;17.83;;
49464;SDS011;35358;49.342;8.802;2023-02-12T03:29:38;29.52;;;18.33;;
49464;SDS011;35358;49.342;8.802;2023-02-12T03:35:01;28.63;;;17.13;;
49464;SDS011;35358;49.342;8.802;2023-02-12T03:37:50;29.27;;;17.08;;
49464;SDS011;35358;49.342;8.802;2023-02-12T03:43:07;29.77;;;17.63;;
49464;SDS011;35358;49.342;8.802;2023-02-12T03:46:07;30.27;;;18.98;;
49464;SDS011;35358;49.342;8.802;2023-02-12T03:49:19;30.33;;;18.52;;
49464;SDS011;35358;49.342;8.802;2023-02-12T03:54:04;27.67;;;18.03;;
49464;SDS011;35358;49.342;8.802;2023-02-12T03:56:39;28.73;;;17.30;;
49464;SDS011;35358;49.342;8.802;2023-02-12T03:59:12;26.38;;;16.75;;
49464;SDS011;35358;49.342;8.802;2023-02-12T04:01:41;24.42;;;14.43;;
49464;SDS011;35358;49.342;8.802;2023-02-12T04:04:09;30.48;;;16.73;;
49464;SDS011;35358;49.342;8.802;2023-02-12T04:06:37;25.95;;;15.90;;
49464;SDS011;35358;49.342;8.802;2023-02-12T04:09:06;27.33;;;15.82;;
49464;SDS011;35358;49.342;8.802;2023-02-12T04:11:58;23.85;;;16.00;;
49464;SDS011;35358;49.342;8.802;2023-02-12T04:22:53;21.45;;;14.13;;
49464;SDS011;35358;49.342;8.802;2023-02-12T04:33:19;21.75;;;13.55;;
49464;SDS011;35358;49.342;8.802;2023-02-12T04:35:50;20.63;;;13.05;;
49464;SDS011;35358;49.342;8.802;2023-02-12T04:38:31;21.50;;;13.50;;
49464;SDS011;35358;49.342;8.802;2023-02-12T04:41:24;22.45;;;13.13;;
49464;SDS011;35358;49.342;8.802;2023-02-12T04:43:51;22.60;;;13.63;;
49464;SDS011;35358;49.342;8.802;2023-02-12T04:46:16;22.23;;;14.02;;
49464;SDS011;35358;49.342;8.802;2023-02-12T04:48:55;19.80;;;13.07;;
49464;SDS011;35358;49.342;8.802;2023-02-12T04:51:25;24.83;;;13.60;;
49464;SDS011;35358;49.342;8.802;2023-02-12T04:53:53;23.13;;;13.65;;
49464;SDS011;35358;49.342;8.802;2023-02-12T04:56:18;21.30;;;13.80;;
49464;SDS011;35358;49.342;8.802;2023-02-12T04:58:48;20.50;;;13.25;;
49464;SDS011;35358;49.342;8.802;2023-02-12T05:01:17;20.45;;;12.70;;
49464;SDS011;35358;49.342;8.802;2023-02-12T05:03:43;20.08;;;12.77;;
49464;SDS011;35358;49.342;8.802;2023-02-12T05:06:13;23.30;;;13.70;;
49464;SDS011;35358;49.342;8.802;2023-02-12T05:08:39;22.08;;;14.52;;
49464;SDS011;35358;49.342;8.802;2023-02-12T05:11:07;21.67;;;13.52;;
49464;SDS011;35358;49.342;8.802;2023-02-12T05:13:33;22.75;;;14.05;;
49464;SDS011;35358;49.342;8.802;2023-02-12T05:16:05;23.80;;;14.32;;
49464;SDS011;35358;49.342;8.802;2023-02-12T05:18:33;20.13;;;14.65;;
49464;SDS011;35358;49.342;8.802;2023-02-12T05:21:02;20.55;;;14.23;;
49464;SDS011;35358;49.342;8.802;2023-02-12T05:23:32;21.10;;;14.95;;
49464;SDS011;35358;49.342;8.802;2023-02-12T05:26:04;22.92;;;14.85;;
49464;SDS011;35358;49.342;8.802;2023-02-12T05:28:34;23.58;;;15.18;;
49464;SDS011;35358;49.342;8.802;2023-02-12T05:31:01;22.10;;;15.13;;
49464;SDS011;35358;49.342;8.802;2023-02-12T05:33:33;27.88;;;16.42;;
49464;SDS011;35358;49.342;8.802;2023-02-12T05:36:03;22.02;;;15.90;;
49464;SDS011;35358;49.342;8.802;2023-02-12T05:38:33;24.40;;;14.88;;
49464;SDS011;35358;49.342;8.802;2023-02-12T05:41:06;23.25;;;15.45;;
49464;SDS011;35358;49.342;8.802;2023-02-12T05:43:37;22.83;;;14.77;;
49464;SDS011;35358;49.342;8.802;2023-02-12T05:46:03;22.95;;;14.80;;
49464;SDS011;35358;49.342;8.802;2023-02-12T05:48:30;22.88;;;15.18;;
49464;SDS011;35358;49.342;8.802;2023-02-12T05:51:06;22.80;;;14.47;;
49464;SDS011;35358;49.342;8.802;2023-02-12T05:53:34;21.40;;;14.68;;
49464;SDS011;35358;49.342;8.802;2023-02-12T05:56:08;24.33;;;14.38;;
49464;SDS011;35358;49.342;8.802;2023-02-12T05:58:42;23.35;;;15.85;;
49464;SDS011;35358;49.342;8.802;2023-02-12T06:01:20;25.42;;;15.27;;
49464;SDS011;35358;49.342;8.802;2023-02-12T06:03:51;20.85;;;14.38;;
49464;SDS011;35358;49.342;8.802;2023-02-12T06:06:19;23.95;;;15.75;;
49464;SDS011;35358;49.342;8.802;2023-02-12T06:08:48;28.35;;;16.75;;
49464;SDS011;35358;49.342;8.802;2023-02-12T06:11:17;25.00;;;16.23;;
49464;SDS011;35358;49.342;8.802;2023-02-12T06:13:43;27.75;;;17.77;;
49464;SDS011;35358;49.342;8.802;2023-02-12T06:16:15;25.40;;;15.93;;
49464;SDS011;35358;49.342;8.802;2023-02-12T06:18:43;27.35;;;17.33;;
49464;SDS011;35358;49.342;8.802;2023-02-12T06:21:09;26.95;;;17.55;;
49464;SDS011;35358;49.342;8.802;2023-02-12T06:23:34;22.27;;;15.57;;
49464;SDS011;35358;49.342;8.802;2023-02-12T06:26:02;24.90;;;16.02;;
49464;SDS011;35358;49.342;8.802;2023-02-12T06:28:28;22.65;;;15.57;;
49464;SDS011;35358;49.342;8.802;2023-02-12T06:30:56;25.80;;;16.48;;
49464;SDS011;35358;49.342;8.802;2023-02-12T06:33:21;24.67;;;15.32;;
49464;SDS011;35358;49.342;8.802;2023-02-12T06:35:49;22.92;;;15.35;;
49464;SDS011;35358;49.342;8.802;2023-02-12T06:38:15;24.23;;;14.88;;
49464;SDS011;35358;49.342;8.802;2023-02-12T06:40:40;23.70;;;15.13;;
49464;SDS011;35358;49.342;8.802;2023-02-12T06:43:06;24.02;;;14.75;;
49464;SDS011;35358;49.342;8.802;2023-02-12T06:45:32;23.05;;;14.73;;
49464;SDS011;35358;49.342;8.802;2023-02-12T06:48:00;19.85;;;13.13;;
49464;SDS011;35358;49.342;8.802;2023-02-12T06:50:26;23.45;;;14.10;;
49464;SDS011;35358;49.342;8.802;2023-02-12T06:52:52;23.00;;;13.95;;
49464;SDS011;35358;49.342;8.802;2023-02-12T06:55:18;19.67;;;14.23;;
49464;SDS011;35358;49.342;8.802;2023-02-12T06:57:43;21.60;;;14.27;;
49464;SDS011;35358;49.342;8.802;2023-02-12T07:00:11;22.33;;;15.30;;
49464;SDS011;35358;49.342;8.802;2023-02-12T07:02:37;25.08;;;15.05;;
49464;SDS011;35358;49.342;8.802;2023-02-12T07:05:02;21.95;;;14.85;;
49464;SDS011;35358;49.342;8.802;2023-02-12T07:07:32;23.88;;;16.35;;
49464;SDS011;35358;49.342;8.802;2023-02-12T07:09:58;26.35;;;16.05;;
49464;SDS011;35358;49.342;8.802;2023-02-12T07:12:24;21.30;;;15.90;;
49464;SDS011;35358;49.342;8.802;2023-02-12T07:14:49;24.10;;;17.05;;
49464;SDS011;35358;49.342;8.802;2023-02-12T07:17:15;22.70;;;16.02;;
49464;SDS011;35358;49.342;8.802;2023-02-12T07:19:40;22.45;;;14.82;;
49464;SDS011;35358;49.342;8.802;2023-02-12T07:22:08;20.88;;;13.90;;
49464;SDS011;35358;49.342;8.802;2023-02-12T07:24:34;24.92;;;16.05;;
49464;SDS011;35358;49.342;8.802;2023-02-12T07:27:03;22.65;;;13.88;;
49464;SDS011;35358;49.342;8.802;2023-02-12T07:29:30;21.40;;;14.00;;
49464;SDS011;35358;49.342;8.802;2023-02-12T07:31:59;22.60;;;13.48;;
49464;SDS011;35358;49.342;8.802;2023-02-12T07:34:24;21.30;;;13.48;;
49464;SDS011;35358;49.342;8.802;2023-02-12T07:36:54;22.15;;;12.82;;
49464;SDS011;35358;49.342;8.802;2023-02-12T07:39:23;19.02;;;12.68;;
49464;SDS011;35358;49.342;8.802;2023-02-12T07:41:51;17.27;;;10.70;;
49464;SDS011;35358;49.342;8.802;2023-02-12T07:44:16;19.92;;;11.43;;
49464;SDS011;35358;49.342;8.802;2023-02-12T07:46:45;16.88;;;11.27;;
49464;SDS011;35358;49.342;8.802;2023-02-12T07:49:14;21.63;;;11.52;;
49464;SDS011;35358;49.342;8.802;2023-02-12T07:51:41;17.38;;;11.43;;
49464;SDS011;35358;49.342;8.802;2023-02-12T07:54:07;18.05;;;11.15;;
49464;SDS011;35358;49.342;8.802;2023-02-12T07:56:35;20.00;;;12.18;;
49464;SDS011;35358;49.342;8.802;2023-02-12T07:59:07;19.17;;;12.85;;
49464;SDS011;35358;49.342;8.802;2023-02-12T08:01:37;16.08;;;10.98;;
49464;SDS011;35358;49.342;8.802;2023-02-12T08:04:20;18.25;;;11.18;;
49464;SDS011;35358;49.342;8.802;2023-02-12T08:06:48;20.05;;;11.95;;
49464;SDS011;35358;49.342;8.802;2023-02-12T08:09:19;18.85;;;11.75;;
49464;SDS011;35358;49.342;8.802;2023-02-12T08:11:46;18.30;;;11.43;;
49464;SDS011;35358;49.342;8.802;2023-02-12T08:14:13;22.10;;;12.85;;
49464;SDS011;35358;49.342;8.802;2023-02-12T08:16:40;21.17;;;13.52;;
49464;SDS011;35358;49.342;8.802;2023-02-12T08:19:09;20.80;;;12.38;;
49464;SDS011;35358;49.342;8.802;2023-02-12T08:21:35;22.23;;;12.70;;
49464;SDS011;35358;49.342;8.802;2023-02-12T08:24:03;17.90;;;11.73;;
49464;SDS011;35358;49.342;8.802;2023-02-12T08:26:30;21.75;;;14.65;;
49464;SDS011;35358;49.342;8.802;2023-02-12T08:29:01;20.90;;;12.13;;
49464;SDS011;35358;49.342;8.802;2023-02-12T08:31:28;21.10;;;12.68;;
49464;SDS011;35358;49.342;8.802;2023-02-12T08:33:58;24.70;;;15.73;;
49464;SDS011;35358;49.342;8.802;2023-02-12T08:36:25;21.95;;;13.50;;
49464;SDS011;35358;49.342;8.802;2023-02-12T08:38:57;19.77;;;13.40;;
49464;SDS011;35358;49.342;8.802;2023-02-12T08:41:28;20.98;;;13.85;;
49464;SDS011;35358;49.342;8.802;2023-02-12T08:43:56;30.38;;;18.10;;
49464;SDS011;35358;49.342;8.802;2023-02-12T08:46:29;20.63;;;14.68;;
49464;SDS011;35358;49.342;8.802;2023-02-12T08:48:57;20.83;;;14.85;;
49464;SDS011;35358;49.342;8.802;2023-02-12T08:51:32;19.95;;;13.82;;
49464;SDS011;35358;49.342;8.802;2023-02-12T08:54:02;23.40;;;14.70;;
49464;SDS011;35358;49.342;8.802;2023-02-12T08:56:30;23.05;;;14.07;;
49464;SDS011;35358;49.342;8.802;2023-02-12T08:58:57;25.10;;;15.30;;
49464;SDS011;35358;49.342;8.802;2023-02-12T09:01:27;22.95;;;15.02;;
49464;SDS011;35358;49.342;8.802;2023-02-12T09:03:54;22.88;;;15.75;;
49464;SDS011;35358;49.342;8.802;2023-02-12T09:06:21;25.45;;;16.45;;
49464;SDS011;35358;49.342;8.802;2023-02-12T09:08:51;24.90;;;14.73;;
49464;SDS011;35358;49.342;8.802;2023-02-12T09:11:21;21.80;;;14.15;;
49464;SDS011;35358;49.342;8.802;2023-02-12T09:13:50;25.90;;;16.33;;
49464;SDS011;35358;49.342;8.802;2023-02-12T09:16:17;26.40;;;18.40;;
49464;SDS011;35358;49.342;8.802;2023-02-12T09:18:45;29.02;;;18.38;;
49464;SDS011;35358;49.342;8.802;2023-02-12T09:21:11;24.63;;;15.95;;
49464;SDS011;35358;49.342;8.802;2023-02-12T09:23:40;24.63;;;17.08;;
49464;SDS011;35358;49.342;8.802;2023-02-12T09:26:07;23.52;;;16.50;;
49464;SDS011;35358;49.342;8.802;2023-02-12T09:28:37;23.05;;;15.77;;
49464;SDS011;35358;49.342;8.802;2023-02-12T09:31:08;24.65;;;15.73;;
49464;SDS011;35358;49.342;8.802;2023-02-12T09:33:35;21.17;;;15.23;;
49464;SDS011;35358;49.342;8.802;2023-02-12T09:36:05;22.67;;;14.35;;
49464;SDS011;35358;49.342;8.802;2023-02-12T09:38:36;21.23;;;14.13;;
49464;SDS011;35358;49.342;8.802;2023-02-12T09:49:09;21.80;;;14.20;;
49464;SDS011;35358;49.342;8.802;2023-02-12T09:51:41;21.02;;;13.38;;
49464;SDS011;35358;49.342;8.802;2023-02-12T09:54:18;21.83;;;14.57;;
49464;SDS011;35358;49.342;8.802;2023-02-12T09:56:47;21.80;;;14.52;;
49464;SDS011;35358;49.342;8.802;2023-02-12T09:59:27;23.20;;;13.68;;
49464;SDS011;35358;49.342;8.802;2023-02-12T10:01:59;22.30;;;13.52;;
49464;SDS011;35358;49.342;8.802;2023-02-12T10:04:25;18.42;;;13.73;;
49464;SDS011;35358;49.342;8.802;2023-02-12T10:09:47;21.20;;;14.65;;
49464;SDS011;35358;49.342;8.802;2023-02-12T10:26:43;20.25;;;13.75;;
49464;SDS011;35358;49.342;8.802;2023-02-12T10:31:42;18.20;;;12.93;;
49464;SDS011;35358;49.342;8.802;2023-02-12T10:34:18;27.15;;;15.90;;
49464;SDS011;35358;49.342;8.802;2023-02-12T10:36:49;24.83;;;15.38;;
49464;SDS011;35358;49.342;8.802;2023-02-12T10:41:59;27.30;;;16.58;;
49464;SDS011;35358;49.342;8.802;2023-02-12T10:44:34;20.42;;;14.68;;
49464;SDS011;35358;49.342;8.802;2023-02-12T10:47:00;27.02;;;16.85;;
49464;SDS011;35358;49.342;8.802;2023-02-12T10:49:25;22.10;;;14.13;;
49464;SDS011;35358;49.342;8.802;2023-02-12T10:57:17;24.30;;;15.98;;
49464;SDS011;35358;49.342;8.802;2023-02-12T10:59:51;23.58;;;15.63;;
49464;SDS011;35358;49.342;8.802;2023-02-12T11:02:28;28.48;;;16.15;;
49464;SDS011;35358;49.342;8.802;2023-02-12T11:04:58;22.88;;;15.43;;
49464;SDS011;35358;49.342;8.802;2023-02-12T11:07:25;21.90;;;14.30;;
49464;SDS011;35358;49.342;8.802;2023-02-12T11:09:53;25.90;;;14.85;;
49464;SDS011;35358;49.342;8.802;2023-02-12T11:12:31;24.92;;;14.40;;
49464;SDS011;35358;49.342;8.802;2023-02-12T11:15:12;23.88;;;14.05;;
49464;SDS011;35358;49.342;8.802;2023-02-12T11:20:40;23.33;;;13.38;;
49464;SDS011;35358;49.342;8.802;2023-02-12T11:26:01;21.63;;;12.02;;
49464;SDS011;35358;49.342;8.802;2023-02-12T11:28:57;20.38;;;13.02;;
49464;SDS011;35358;49.342;8.802;2023-02-12T11:31:26;18.20;;;12.10;;
49464;SDS011;35358;49.342;8.802;2023-02-12T11:36:45;17.42;;;10.25;;
49464;SDS011;35358;49.342;8.802;2023-02-12T11:39:36;14.90;;;9.95;;
49464;SDS011;35358;49.342;8.802;2023-02-12T11:42:14;13.68;;;9.15;;
49464;SDS011;35358;49.342;8.802;2023-02-12T11:44:49;12.50;;;7.53;;
49464;SDS011;35358;49.342;8.802;2023-02-12T11:47:24;11.00;;;6.45;;
49464;SDS011;35358;49.342;8.802;2023-02-12T11:49:55;10.48;;;6.22;;
49464;SDS011;35358;49.342;8.802;2023-02-12T11:52:30;9.07;;;6.40;;
49464;SDS011;35358;49.342;8.802;2023-02-12T11:54:59;8.23;;;4.90;;
49464;SDS011;35358;49.342;8.802;2023-02-12T12:05:37;5.60;;;2.70;;
49464;SDS011;35358;49.342;8.802;2023-02-12T12:08:42;7.32;;;4.45;;
49464;SDS011;35358;49.342;8.802;2023-02-12T12:11:15;6.55;;;4.05;;
49464;SDS011;35358;49.342;8.802;2023-02-12T12:16:35;4.60;;;2.90;;
49464;SDS011;35358;49.342;8.802;2023-02-12T12:19:25;5.75;;;3.50;;
49464;SDS011;35358;49.342;8.802;2023-02-12T12:25:57;2.80;;;2.03;;
49464;SDS011;35358;49.342;8.802;2023-02-12T12:28:17;3.50;;;2.75;;
49464;SDS011;35358;49.342;8.802;2023-02-12T12:31:01;3.42;;;2.55;;
49464;SDS011;35358;49.342;8.802;2023-02-12T12:41:36;5.30;;;2.95;;
49464;SDS011;35358;49.342;8.802;2023-02-12T12:44:22;4.07;;;2.75;;
49464;SDS011;35358;49.342;8.802;2023-02-12T12:56:06;3.40;;;2.10;;
49464;SDS011;35358;49.342;8.802;2023-02-12T13:17:32;6.18;;;4.38;;
49464;SDS011;35358;49.342;8.802;2023-02-12T13:20:28;7.78;;;5.07;;
49464;SDS011;35358;49.342;8.802;2023-02-12T13:22:58;6.28;;;4.22;;
49464;SDS011;35358;49.342;8.802;2023-02-12T13:28:20;9.90;;;5.70;;
49464;SDS011;35358;49.342;8.802;2023-02-12T13:30:57;9.02;;;5.57;;
49464;SDS011;35358;49.342;8.802;2023-02-12T13:35:59;9.38;;;5.50;;
49464;SDS011;35358;49.342;8.802;2023-02-12T13:38:36;8.05;;;5.53;;
49464;SDS011;35358;49.342;8.802;2023-02-12T13:41:04;6.53;;;4.72;;
49464;SDS011;35358;49.342;8.802;2023-02-12T13:43:48;7.97;;;6.00;;
49464;SDS011;35358;49.342;8.802;2023-02-12T13:51:49;8.60;;;5.03;;
49464;SDS011;35358;49.342;8.802;2023-02-12T13:54:35;6.93;;;5.22;;
49464;SDS011;35358;49.342;8.802;2023-02-12T13:57:02;7.93;;;5.20;;
49464;SDS011;35358;49.342;8.802;2023-02-12T14:02:44;6.43;;;4.90;;
49464;SDS011;35358;49.342;8.802;2023-02-12T14:04:58;7.18;;;4.80;;
49464;SDS011;35358;49.342;8.802;2023-02-12T14:07:40;6.90;;;5.20;;
49464;SDS011;35358;49.342;8.802;2023-02-12T14:10:07;7.88;;;4.90;;
49464;SDS011;35358;49.342;8.802;2023-02-12T14:12:42;6.72;;;4.38;;
49464;SDS011;35358;49.342;8.802;2023-02-12T14:21:32;6.57;;;4.80;;
49464;SDS011;35358;49.342;8.802;2023-02-12T14:23:40;6.90;;;4.45;;
49464;SDS011;35358;49.342;8.802;2023-02-12T14:26:14;8.40;;;5.30;;
49464;SDS011;35358;49.342;8.802;2023-02-12T14:33:42;7.05;;;5.20;;
49464;SDS011;35358;49.342;8.802;2023-02-12T14:46:48;8.80;;;5.10;;
49464;SDS011;35358;49.342;8.802;2023-02-12T14:49:18;7.78;;;5.63;;
49464;SDS011;35358;49.342;8.802;2023-02-12T14:52:37;7.22;;;5.22;;
49464;SDS011;35358;49.342;8.802;2023-02-12T14:59:52;8.95;;;6.20;;
49464;SDS011;35358;49.342;8.802;2023-02-12T15:02:28;6.88;;;5.22;;
49464;SDS011;35358;49.342;8.802;2023-02-12T15:05:04;8.45;;;5.20;;
49464;SDS011;35358;49.342;8.802;2023-02-12T15:07:46;6.78;;;4.80;;
49464;SDS011;35358;49.342;8.802;2023-02-12T15:10:19;8.73;;;5.63;;
49464;SDS011;35358;49.342;8.802;2023-02-12T15:15:31;6.40;;;4.60;;
49464;SDS011;35358;49.342;8.802;2023-02-12T15:20:53;6.40;;;4.47;;
49464;SDS011;35358;49.342;8.802;2023-02-12T15:23:33;6.13;;;4.60;;
49464;SDS011;35358;49.342;8.802;2023-02-12T15:26:04;6.32;;;4.47;;
49464;SDS011;35358;49.342;8.802;2023-02-12T15:28:36;5.40;;;3.85;;
49464;SDS011;35358;49.342;8.802;2023-02-12T15:31:06;7.13;;;4.90;;
49464;SDS011;35358;49.342;8.802;2023-02-12T15:33:40;5.80;;;4.68;;
49464;SDS011;35358;49.342;8.802;2023-02-12T15:36:09;6.82;;;4.30;;
49464;SDS011;35358;49.342;8.802;2023-02-12T15:38:42;5.78;;;4.53;;
49464;SDS011;35358;49.342;8.802;2023-02-12T15:41:21;7.45;;;5.13;;
49464;SDS011;35358;49.342;8.802;2023-02-12T15:43:56;7.97;;;5.65;;
49464;SDS011;35358;49.342;8.802;2023-02-12T15:46:26;21.63;;;11.27;;
49464;SDS011;35358;49.342;8.802;2023-02-12T15:48:51;33.92;;;19.15;;
49464;SDS011;35358;49.342;8.802;2023-02-12T15:51:36;12.57;;;8.77;;
49464;SDS011;35358;49.342;8.802;2023-02-12T15:54:05;8.48;;;6.38;;
49464;SDS011;35358;49.342;8.802;2023-02-12T15:56:39;9.48;;;5.90;;
49464;SDS011;35358;49.342;8.802;2023-02-12T15:59:14;6.33;;;4.93;;
49464;SDS011;35358;49.342;8.802;2023-02-12T16:02:13;7.30;;;4.78;;
49464;SDS011;35358;49.342;8.802;2023-02-12T16:04:49;6.80;;;4.47;;
49464;SDS011;35358;49.342;8.802;2023-02-12T16:07:17;8.18;;;4.85;;
49464;SDS011;35358;49.342;8.802;2023-02-12T16:09:44;5.75;;;3.63;;
49464;SDS011;35358;49.342;8.802;2023-02-12T16:12:14;4.63;;;3.55;;
49464;SDS011;35358;49.342;8.802;2023-02-12T16:14:50;6.57;;;4.03;;
49464;SDS011;35358;49.342;8.802;2023-02-12T16:19:59;5.97;;;3.67;;
49464;SDS011;35358;49.342;8.802;2023-02-12T16:22:49;7.70;;;4.28;;
49464;SDS011;35358;49.342;8.802;2023-02-12T16:25:19;6.97;;;4.18;;
49464;SDS011;35358;49.342;8.802;2023-02-12T16:28:04;6.15;;;4.25;;
49464;SDS011;35358;49.342;8.802;2023-02-12T16:32:58;6.10;;;4.13;;
49464;SDS011;35358;49.342;8.802;2023-02-12T16:35:25;6.80;;;4.35;;
49464;SDS011;35358;49.342;8.802;2023-02-12T16:41:21;7.55;;;4.65;;
49464;SDS011;35358;49.342;8.802;2023-02-12T16:46:27;7.75;;;4.80;;
49464;SDS011;35358;49.342;8.802;2023-02-12T16:48:58;7.78;;;4.85;;
49464;SDS011;35358;49.342;8.802;2023-02-12T16:51:30;7.80;;;4.65;;
49464;SDS011;35358;49.342;8.802;2023-02-12T16:53:59;8.15;;;4.93;;
49464;SDS011;35358;49.342;8.802;2023-02-12T16:56:32;7.20;;;4.90;;
49464;SDS011;35358;49.342;8.802;2023-02-12T16:59:02;7.32;;;4.90;;
49464;SDS011;35358;49.342;8.802;2023-02-12T17:01:32;7.63;;;4.53;;
49464;SDS011;35358;49.342;8.802;2023-02-12T17:04:00;8.88;;;4.70;;
49464;SDS011;35358;49.342;8.802;2023-02-12T17:06:32;7.35;;;4.57;;
49464;SDS011;35358;49.342;8.802;2023-02-12T17:08:57;8.57;;;5.78;;
49464;SDS011;35358;49.342;8.802;2023-02-12T17:11:28;10.63;;;6.35;;
49464;SDS011;35358;49.342;8.802;2023-02-12T17:13:56;8.77;;;4.78;;
49464;SDS011;35358;49.342;8.802;2023-02-12T17:16:21;6.70;;;4.72;;
49464;SDS011;35358;49.342;8.802;2023-02-12T17:18:47;6.97;;;5.20;;
49464;SDS011;35358;49.342;8.802;2023-02-12T17:23:53;7.30;;;4.65;;
49464;SDS011;35358;49.342;8.802;2023-02-12T17:26:20;6.63;;;4.63;;
49464;SDS011;35358;49.342;8.802;2023-02-12T17:28:46;6.90;;;4.47;;
49464;SDS011;35358;49.342;8.802;2023-02-12T17:31:14;7.82;;;4.85;;
49464;SDS011;35358;49.342;8.802;2023-02-12T17:33:40;8.20;;;4.82;;
49464;SDS011;35358;49.342;8.802;2023-02-12T17:36:09;7.75;;;5.00;;
49464;SDS011;35358;49.342;8.802;2023-02-12T17:38:35;7.18;;;4.65;;
49464;SDS011;35358;49.342;8.802;2023-02-12T17:41:07;7.28;;;4.88;;
49464;SDS011;35358;49.342;8.802;2023-02-12T17:43:36;8.95;;;5.65;;
49464;SDS011;35358;49.342;8.802;2023-02-12T17:46:06;11.15;;;5.88;;
49464;SDS011;35358;49.342;8.802;2023-02-12T17:48:35;10.45;;;6.50;;
49464;SDS011;35358;49.342;8.802;2023-02-12T17:51:01;21.08;;;12.85;;
49464;SDS011;35358;49.342;8.802;2023-02-12T17:53:27;29.33;;;15.63;;
49464;SDS011;35358;49.342;8.802;2023-02-12T17:55:52;28.13;;;15.77;;
49464;SDS011;35358;49.342;8.802;2023-02-12T17:58:20;20.00;;;10.95;;
49464;SDS011;35358;49.342;8.802;2023-02-12T18:00:48;19.88;;;10.70;;
49464;SDS011;35358;49.342;8.802;2023-02-12T18:03:13;18.35;;;10.88;;
49464;SDS011;35358;49.342;8.802;2023-02-12T18:05:42;19.10;;;11.55;;
49464;SDS011;35358;49.342;8.802;2023-02-12T18:08:08;21.73;;;11.80;;